DFOXI EKMB-EKSS
Flight info
| Callsign | DFOXI |
|---|---|
| Flight time | 0h 49m |
| Altitude | 8000 |
| Route | DCT |
| Aircraft | PC6T/L-SDLY/S |
Departure
| Time | 2026-05-04 08:22 |
|---|---|
| Airport | Lolland Falster Maribo Airport (EKMB) |
Arrival
| Time | 2026-05-04 09:11 |
|---|---|
| Airport | Samsø Airfield (EKSS) |
| Time | Latitude | Longitude | Altitude | Speed | Heading |
|---|---|---|---|---|---|
| 2026-05-04 08:13 | 54.69780 | 11.44583 | 26 ft | 0 kts | 97° |
| 2026-05-04 08:19 | 54.69872 | 11.44722 | 26 ft | 13 kts | 242° |
| 2026-05-04 08:19 | 54.69897 | 11.44632 | 25 ft | 3 kts | 277° |
| 2026-05-04 08:20 | 54.69897 | 11.44626 | 24 ft | 0 kts | 278° |
| 2026-05-04 08:21 | 54.69897 | 11.44625 | 24 ft | 1 kts | 278° |
| 2026-05-04 08:21 | 54.69909 | 11.44469 | 25 ft | 40 kts | 278° |
| 2026-05-04 08:21 | 54.69977 | 11.43705 | 148 ft | 80 kts | 279° |
| 2026-05-04 08:21 | 54.70087 | 11.42682 | 331 ft | 88 kts | 284° |
| 2026-05-04 08:22 | 54.70289 | 11.41678 | 611 ft | 84 kts | 289° |
| 2026-05-04 08:22 | 54.70685 | 11.40971 | 971 ft | 97 kts | 341° |
| 2026-05-04 08:24 | 54.75974 | 11.44865 | 1838 ft | 109 kts | 11° |
| 2026-05-04 08:24 | 54.76670 | 11.45347 | 1984 ft | 111 kts | 13° |
| 2026-05-04 08:24 | 54.77395 | 11.45824 | 2016 ft | 112 kts | 10° |
| 2026-05-04 08:24 | 54.78117 | 11.46276 | 2232 ft | 108 kts | 9° |
| 2026-05-04 08:25 | 54.78793 | 11.46734 | 2457 ft | 104 kts | 10° |
| 2026-05-04 08:25 | 54.79467 | 11.47178 | 2671 ft | 103 kts | 11° |
| 2026-05-04 08:25 | 54.80120 | 11.47598 | 2871 ft | 99 kts | 8° |
| 2026-05-04 08:25 | 54.80707 | 11.48363 | 3051 ft | 113 kts | 32° |
| 2026-05-04 08:26 | 54.81325 | 11.49180 | 3238 ft | 113 kts | 26° |
| 2026-05-04 08:27 | 54.85082 | 11.54381 | 3511 ft | 112 kts | 27° |
| 2026-05-04 08:28 | 54.85757 | 11.55260 | 3506 ft | 126 kts | 27° |
| 2026-05-04 08:28 | 54.86498 | 11.56102 | 3501 ft | 128 kts | 19° |
| 2026-05-04 08:28 | 54.87304 | 11.56738 | 3500 ft | 127 kts | 13° |
| 2026-05-04 08:28 | 54.88113 | 11.57284 | 3505 ft | 126 kts | 11° |
| 2026-05-04 08:29 | 54.88940 | 11.57790 | 3506 ft | 126 kts | 11° |
| 2026-05-04 08:29 | 54.89761 | 11.58299 | 3503 ft | 125 kts | 11° |
| 2026-05-04 08:29 | 54.90581 | 11.58803 | 3498 ft | 124 kts | 9° |
| 2026-05-04 08:31 | 54.96401 | 11.60982 | 3498 ft | 122 kts | 0° |
| 2026-05-04 08:33 | 55.01527 | 11.58386 | 3494 ft | 110 kts | 326° |
| 2026-05-04 08:33 | 55.02211 | 11.57775 | 3493 ft | 111 kts | 326° |
| 2026-05-04 08:35 | 55.07059 | 11.53456 | 3499 ft | 112 kts | 326° |
| 2026-05-04 08:35 | 55.07749 | 11.52835 | 3499 ft | 111 kts | 326° |
| 2026-05-04 08:35 | 55.08054 | 11.52561 | 3501 ft | 111 kts | 326° |
| 2026-05-04 08:37 | 55.12035 | 11.48875 | 3503 ft | 112 kts | 323° |
| 2026-05-04 08:37 | 55.12683 | 11.48120 | 3503 ft | 112 kts | 321° |
| 2026-05-04 08:37 | 55.13332 | 11.47365 | 3499 ft | 112 kts | 321° |
| 2026-05-04 08:38 | 55.13968 | 11.46580 | 3501 ft | 111 kts | 316° |
| 2026-05-04 08:38 | 55.14540 | 11.45675 | 3502 ft | 111 kts | 313° |
| 2026-05-04 08:38 | 55.15107 | 11.44759 | 3501 ft | 111 kts | 313° |
| 2026-05-04 08:40 | 55.18750 | 11.37877 | 3508 ft | 109 kts | 308° |
| 2026-05-04 08:40 | 55.19260 | 11.36892 | 3504 ft | 109 kts | 308° |
| 2026-05-04 08:40 | 55.19767 | 11.35907 | 3516 ft | 108 kts | 308° |
| 2026-05-04 08:41 | 55.20257 | 11.34953 | 3562 ft | 106 kts | 308° |
| 2026-05-04 08:41 | 55.20758 | 11.34016 | 3610 ft | 106 kts | 311° |
| 2026-05-04 08:41 | 55.21286 | 11.33112 | 3659 ft | 106 kts | 311° |
| 2026-05-04 08:41 | 55.21813 | 11.32208 | 3710 ft | 106 kts | 311° |
| 2026-05-04 08:42 | 55.22339 | 11.31303 | 3761 ft | 106 kts | 311° |
| 2026-05-04 08:42 | 55.22871 | 11.30405 | 3810 ft | 107 kts | 313° |
| 2026-05-04 08:42 | 55.23443 | 11.29573 | 3861 ft | 108 kts | 317° |
| 2026-05-04 08:42 | 55.24052 | 11.28802 | 3916 ft | 108 kts | 318° |
| 2026-05-04 08:43 | 55.24649 | 11.28028 | 4015 ft | 105 kts | 318° |
| 2026-05-04 08:43 | 55.25235 | 11.27293 | 4140 ft | 103 kts | 318° |
| 2026-05-04 08:43 | 55.25829 | 11.26596 | 4267 ft | 103 kts | 321° |
| 2026-05-04 08:43 | 55.26436 | 11.25939 | 4395 ft | 102 kts | 321° |
| 2026-05-04 08:44 | 55.27041 | 11.25283 | 4522 ft | 102 kts | 322° |
| 2026-05-04 08:44 | 55.27659 | 11.24668 | 4648 ft | 102 kts | 323° |
| 2026-05-04 08:46 | 55.31621 | 11.20929 | 6263 ft | 85 kts | 322° |
| 2026-05-04 08:46 | 55.32153 | 11.20472 | 6516 ft | 85 kts | 323° |
| 2026-05-04 08:46 | 55.32685 | 11.20026 | 6763 ft | 85 kts | 322° |
| 2026-05-04 08:46 | 55.33223 | 11.19579 | 6998 ft | 87 kts | 323° |
| 2026-05-04 08:47 | 55.33770 | 11.19142 | 7240 ft | 85 kts | 322° |
| 2026-05-04 08:47 | 55.34302 | 11.18731 | 7483 ft | 82 kts | 322° |
| 2026-05-04 08:47 | 55.34821 | 11.18345 | 7728 ft | 80 kts | 322° |
| 2026-05-04 08:47 | 55.35332 | 11.17982 | 7965 ft | 79 kts | 322° |
| 2026-05-04 08:48 | 55.35890 | 11.17565 | 8012 ft | 98 kts | 323° |
| 2026-05-04 08:48 | 55.36560 | 11.17018 | 8016 ft | 110 kts | 323° |
| 2026-05-04 08:48 | 55.37260 | 11.16422 | 8015 ft | 116 kts | 323° |
| 2026-05-04 08:48 | 55.37983 | 11.15790 | 8014 ft | 116 kts | 323° |
| 2026-05-04 08:49 | 55.38706 | 11.15159 | 8016 ft | 116 kts | 323° |
| 2026-05-04 08:50 | 55.43128 | 11.11679 | 8011 ft | 118 kts | 329° |
| 2026-05-04 08:50 | 55.43893 | 11.11182 | 8011 ft | 115 kts | 323° |
| 2026-05-04 08:51 | 55.44553 | 11.10444 | 8012 ft | 112 kts | 315° |
| 2026-05-04 08:51 | 55.45179 | 11.09637 | 8010 ft | 112 kts | 314° |
| 2026-05-04 08:51 | 55.45805 | 11.08823 | 8004 ft | 112 kts | 314° |
| 2026-05-04 08:51 | 55.46445 | 11.07983 | 7953 ft | 114 kts | 314° |
| 2026-05-04 08:52 | 55.47077 | 11.07151 | 7946 ft | 113 kts | 314° |
| 2026-05-04 08:52 | 55.47709 | 11.06324 | 7951 ft | 113 kts | 314° |
| 2026-05-04 08:52 | 55.48337 | 11.05500 | 7951 ft | 113 kts | 314° |
| 2026-05-04 08:52 | 55.48966 | 11.04677 | 7954 ft | 112 kts | 314° |
| 2026-05-04 08:53 | 55.49594 | 11.03855 | 7953 ft | 112 kts | 314° |
| 2026-05-04 08:54 | 55.53768 | 10.98406 | 7953 ft | 112 kts | 314° |
| 2026-05-04 08:55 | 55.54393 | 10.97586 | 7953 ft | 112 kts | 314° |
| 2026-05-04 08:55 | 55.55019 | 10.96765 | 7948 ft | 112 kts | 314° |
| 2026-05-04 08:55 | 55.55629 | 10.95919 | 7956 ft | 111 kts | 311° |
| 2026-05-04 08:55 | 55.56231 | 10.95056 | 7951 ft | 112 kts | 312° |
| 2026-05-04 08:57 | 55.60457 | 10.88982 | 7956 ft | 112 kts | 312° |
| 2026-05-04 09:01 | 55.68959 | 10.76677 | 7955 ft | 113 kts | 312° |
| 2026-05-04 09:01 | 55.69567 | 10.75790 | 7948 ft | 113 kts | 312° |
| 2026-05-04 09:01 | 55.70176 | 10.74901 | 7954 ft | 113 kts | 312° |
| 2026-05-04 09:01 | 55.70784 | 10.74012 | 7953 ft | 113 kts | 312° |
| 2026-05-04 09:02 | 55.71393 | 10.73121 | 7954 ft | 113 kts | 312° |
| 2026-05-04 09:02 | 55.72000 | 10.72231 | 7953 ft | 113 kts | 312° |
| 2026-05-04 09:02 | 55.72608 | 10.71340 | 7957 ft | 113 kts | 312° |
| 2026-05-04 09:02 | 55.73215 | 10.70448 | 7947 ft | 113 kts | 312° |
| 2026-05-04 09:03 | 55.73822 | 10.69556 | 7952 ft | 113 kts | 312° |
| 2026-05-04 09:03 | 55.74429 | 10.68665 | 7953 ft | 113 kts | 312° |
| 2026-05-04 09:03 | 55.75036 | 10.67771 | 7956 ft | 113 kts | 312° |
| 2026-05-04 09:03 | 55.75595 | 10.66841 | 7954 ft | 109 kts | 301° |
| 2026-05-04 09:04 | 55.76043 | 10.65753 | 7944 ft | 109 kts | 300° |
| 2026-05-04 09:04 | 55.76497 | 10.64666 | 7957 ft | 110 kts | 300° |
| 2026-05-04 09:04 | 55.76958 | 10.63559 | 7852 ft | 111 kts | 300° |
| 2026-05-04 09:04 | 55.77421 | 10.62439 | 7609 ft | 112 kts | 301° |
| 2026-05-04 09:05 | 55.77866 | 10.61363 | 7275 ft | 107 kts | 300° |
| 2026-05-04 09:05 | 55.78304 | 10.60294 | 6858 ft | 107 kts | 301° |
| 2026-05-04 09:05 | 55.78740 | 10.59219 | 6372 ft | 107 kts | 301° |
| 2026-05-04 09:05 | 55.79167 | 10.58136 | 5865 ft | 107 kts | 300° |
| 2026-05-04 09:06 | 55.79600 | 10.57061 | 5353 ft | 107 kts | 304° |
| 2026-05-04 09:07 | 55.84400 | 10.53382 | 1819 ft | 110 kts | 339° |
| 2026-05-04 09:08 | 55.85146 | 10.53184 | 1496 ft | 102 kts | 346° |
| 2026-05-04 09:08 | 55.85827 | 10.53118 | 1479 ft | 90 kts | 350° |
| 2026-05-04 09:08 | 55.86423 | 10.53121 | 1484 ft | 84 kts | 349° |
| 2026-05-04 09:08 | 55.87013 | 10.53128 | 1483 ft | 85 kts | 349° |
| 2026-05-04 09:09 | 55.87584 | 10.53295 | 1469 ft | 85 kts | 9° |
| 2026-05-04 09:09 | 55.88138 | 10.53727 | 1389 ft | 88 kts | 11° |
| 2026-05-04 09:09 | 55.88691 | 10.54154 | 1314 ft | 86 kts | 9° |
| 2026-05-04 09:09 | 55.89204 | 10.54614 | 1242 ft | 83 kts | 24° |
| 2026-05-04 09:10 | 55.89588 | 10.55427 | 1124 ft | 88 kts | 59° |
| 2026-05-04 09:10 | 55.89548 | 10.56414 | 822 ft | 81 kts | 120° |
| 2026-05-04 09:10 | 55.89309 | 10.57396 | 551 ft | 88 kts | 116° |
| 2026-05-04 09:10 | 55.89165 | 10.58449 | 378 ft | 90 kts | 100° |
| 2026-05-04 09:11 | 55.89080 | 10.59566 | 244 ft | 88 kts | 101° |
| 2026-05-04 09:11 | 55.88983 | 10.60566 | 73 ft | 85 kts | 100° |
| 2026-05-04 09:11 | 55.88902 | 10.61492 | 7 ft | 68 kts | 99° |
| 2026-05-04 09:11 | 55.88823 | 10.62136 | 9 ft | 29 kts | 96° |
| 2026-05-04 09:12 | 55.88864 | 10.62149 | 9 ft | 8 kts | 254° |
| 2026-05-04 09:12 | 55.88867 | 10.61980 | 10 ft | 19 kts | 278° |
| 2026-05-04 09:14 | 55.89053 | 10.59855 | 203 ft | 81 kts | 100° |
| 2026-05-04 09:14 | 55.88956 | 10.60853 | 26 ft | 81 kts | 98° |
| 2026-05-04 09:14 | 55.88882 | 10.61718 | 7 ft | 63 kts | 99° |
| 2026-05-04 09:14 | 55.88843 | 10.62203 | 9 ft | 19 kts | 2° |
| 2026-05-04 09:15 | 55.89084 | 10.61133 | 8 ft | 1 kts | 123° |
| 2026-05-04 09:15 | 55.89083 | 10.61135 | 8 ft | 2 kts | 125° |
| 2026-05-04 09:15 | 55.89080 | 10.61142 | 8 ft | 0 kts | 134° |